createdAt,value
2018-01-16T00:01:24.620Z,24.63
2018-01-16T00:03:52.208Z,22.30
2018-01-16T00:06:19.790Z,21.60
2018-01-16T00:08:47.418Z,23.30
2018-01-16T00:11:15.026Z,21.30
2018-01-16T00:13:42.595Z,20.00
2018-01-16T00:16:10.236Z,26.90
2018-01-16T00:18:37.804Z,23.37
2018-01-16T00:21:05.517Z,27.05
2018-01-16T00:23:33.137Z,22.30
2018-01-16T00:26:00.900Z,23.00
2018-01-16T00:28:28.484Z,21.40
2018-01-16T00:30:56.173Z,19.67
2018-01-16T00:33:23.747Z,20.47
2018-01-16T00:35:51.488Z,19.93
2018-01-16T00:38:19.149Z,20.97
2018-01-16T00:40:46.885Z,19.97
2018-01-16T00:43:14.675Z,20.87
2018-01-16T00:45:42.297Z,23.20
2018-01-16T00:48:09.890Z,20.93
2018-01-16T00:50:37.471Z,21.97
2018-01-16T00:53:05.103Z,21.97
2018-01-16T00:55:33.003Z,19.93
2018-01-16T00:58:00.602Z,21.10
2018-01-16T01:00:28.316Z,22.13
2018-01-16T01:02:55.902Z,19.33
2018-01-16T01:05:23.484Z,20.13
2018-01-16T01:07:51.104Z,20.80
2018-01-16T01:10:18.696Z,19.30
2018-01-16T01:12:46.278Z,21.27
2018-01-16T01:15:14.083Z,19.27
2018-01-16T01:17:41.668Z,18.93
2018-01-16T01:20:09.245Z,18.10
2018-01-16T01:22:37.080Z,18.50
2018-01-16T01:25:04.741Z,20.60
2018-01-16T01:27:32.469Z,19.10
2018-01-16T01:30:00.270Z,20.50
2018-01-16T01:32:27.934Z,19.13
2018-01-16T01:34:55.585Z,19.90
2018-01-16T01:37:23.211Z,18.97
2018-01-16T01:39:50.792Z,20.93
2018-01-16T01:42:18.354Z,23.33
2018-01-16T01:44:45.968Z,18.60
2018-01-16T01:47:13.689Z,21.35
2018-01-16T01:49:41.266Z,23.07
2018-01-16T01:52:09.007Z,19.47
2018-01-16T01:54:36.688Z,21.70
2018-01-16T01:57:04.263Z,19.97
2018-01-16T01:59:31.867Z,22.23
2018-01-16T02:01:59.434Z,18.43
2018-01-16T02:04:27.118Z,23.57
2018-01-16T02:06:54.779Z,19.90
2018-01-16T02:09:22.354Z,21.53
2018-01-16T02:11:49.939Z,21.50
2018-01-16T02:14:17.577Z,19.27
2018-01-16T02:16:45.155Z,19.90
2018-01-16T02:19:12.739Z,21.40
2018-01-16T02:21:40.566Z,22.77
2018-01-16T02:24:08.215Z,23.13
2018-01-16T02:26:35.790Z,22.00
2018-01-16T02:29:03.666Z,19.17
2018-01-16T02:31:31.257Z,21.25
2018-01-16T02:33:59.072Z,20.00
2018-01-16T02:36:26.724Z,19.73
2018-01-16T02:38:54.308Z,20.90
2018-01-16T02:41:21.893Z,20.83
2018-01-16T02:43:49.711Z,21.15
2018-01-16T02:46:17.393Z,20.40
2018-01-16T02:48:45.053Z,19.47
2018-01-16T02:51:12.717Z,18.67
2018-01-16T02:53:40.286Z,17.83
2018-01-16T02:56:08.023Z,18.23
2018-01-16T02:58:35.667Z,20.30
2018-01-16T03:01:03.353Z,20.63
2018-01-16T03:03:30.925Z,18.77
2018-01-16T03:05:58.670Z,19.20
2018-01-16T03:08:26.255Z,19.23
2018-01-16T03:10:54.011Z,23.67
2018-01-16T03:13:21.628Z,22.47
2018-01-16T03:15:49.215Z,20.27
2018-01-16T03:18:16.787Z,17.53
2018-01-16T03:20:44.403Z,20.40
2018-01-16T03:23:12.110Z,20.60
2018-01-16T03:25:39.687Z,18.67
2018-01-16T03:28:07.308Z,20.83
2018-01-16T03:30:35.156Z,17.50
2018-01-16T03:33:02.768Z,21.77
2018-01-16T03:35:30.393Z,22.85
2018-01-16T03:37:58.076Z,19.30
2018-01-16T03:40:25.739Z,20.20
2018-01-16T03:42:53.347Z,19.43
2018-01-16T03:45:21.088Z,17.83
2018-01-16T03:47:48.689Z,18.00
2018-01-16T03:50:16.387Z,16.87
2018-01-16T03:52:44.052Z,17.90
2018-01-16T03:55:11.632Z,16.90
2018-01-16T03:57:39.248Z,17.43
2018-01-16T04:00:07.046Z,18.37
2018-01-16T04:02:34.628Z,18.63
2018-01-16T04:05:02.376Z,22.85
2018-01-16T04:07:29.956Z,20.13
2018-01-16T04:09:57.689Z,20.43
2018-01-16T04:12:25.353Z,20.40
2018-01-16T04:14:52.915Z,20.83
2018-01-16T04:17:20.690Z,20.57
2018-01-16T04:19:48.307Z,17.90
2018-01-16T04:22:15.887Z,20.47
2018-01-16T04:24:43.509Z,20.10
2018-01-16T04:27:11.334Z,19.77
2018-01-16T04:29:39.188Z,17.13
2018-01-16T04:32:06.776Z,22.37
2018-01-16T04:34:34.426Z,19.03
2018-01-16T04:37:01.997Z,19.70
2018-01-16T04:39:29.634Z,18.77
2018-01-16T04:41:57.505Z,19.70
2018-01-16T04:44:25.082Z,18.00
2018-01-16T04:46:52.655Z,16.27
2018-01-16T04:49:20.266Z,17.07
2018-01-16T04:51:47.844Z,18.92
2018-01-16T04:54:15.413Z,17.97
2018-01-16T04:56:43.027Z,18.00
2018-01-16T04:59:10.734Z,16.13
2018-01-16T05:01:38.312Z,20.33
2018-01-16T05:04:06.277Z,17.33
2018-01-16T05:06:33.862Z,17.97
2018-01-16T05:09:01.431Z,19.60
2018-01-16T05:11:29.239Z,15.90
2018-01-16T05:13:56.814Z,17.97
2018-01-16T05:16:24.574Z,18.20
2018-01-16T05:18:52.186Z,16.67
2018-01-16T05:21:20.039Z,16.87
2018-01-16T05:23:47.762Z,21.73
2018-01-16T05:26:15.550Z,22.00
2018-01-16T05:28:43.137Z,23.00
2018-01-16T05:31:10.833Z,24.90
2018-01-16T05:33:38.460Z,23.03
2018-01-16T05:36:06.114Z,24.53
2018-01-16T05:38:33.733Z,21.63
2018-01-16T05:41:01.350Z,23.00
2018-01-16T05:43:28.930Z,21.50
2018-01-16T05:45:56.730Z,23.37
2018-01-16T05:48:24.388Z,22.43
2018-01-16T05:50:52.055Z,21.37
2018-01-16T05:53:19.699Z,21.50
2018-01-16T05:55:47.310Z,25.47
2018-01-16T05:58:15.046Z,25.10
2018-01-16T06:00:42.686Z,25.83
2018-01-16T06:03:10.357Z,22.80
2018-01-16T06:05:37.961Z,21.00
2018-01-16T06:08:05.591Z,24.90
2018-01-16T06:10:33.338Z,21.53
2018-01-16T06:13:00.925Z,25.00
2018-01-16T06:15:28.672Z,23.43
2018-01-16T06:17:56.540Z,23.23
2018-01-16T06:20:24.127Z,24.47
2018-01-16T06:22:51.857Z,23.40
2018-01-16T06:25:19.487Z,22.53
2018-01-16T06:27:47.176Z,23.03
2018-01-16T06:30:15.127Z,21.60
2018-01-16T06:32:43.132Z,21.27
2018-01-16T06:35:10.711Z,23.30
2018-01-16T06:37:38.464Z,20.87
2018-01-16T06:40:06.494Z,23.30
2018-01-16T06:42:34.312Z,21.80
2018-01-16T06:45:02.126Z,19.30
2018-01-16T06:47:29.741Z,18.30
2018-01-16T06:49:57.384Z,19.80
2018-01-16T06:52:25.041Z,18.33
2018-01-16T06:54:52.703Z,17.43
2018-01-16T06:57:20.353Z,16.40
2018-01-16T06:59:47.957Z,14.50
2018-01-16T07:02:15.667Z,18.27
2018-01-16T07:04:43.532Z,16.70
2018-01-16T07:07:11.399Z,16.98
2018-01-16T07:09:39.069Z,18.40
2018-01-16T07:12:06.641Z,18.80
2018-01-16T07:14:34.403Z,20.37
2018-01-16T07:17:02.142Z,20.63
2018-01-16T07:19:29.774Z,17.27
2018-01-16T07:21:57.341Z,20.93
2018-01-16T07:24:25.011Z,19.50
2018-01-16T07:26:52.624Z,20.80
2018-01-16T07:29:20.236Z,22.03
2018-01-16T07:31:47.826Z,26.10
2018-01-16T07:34:15.508Z,32.83
2018-01-16T07:36:43.346Z,36.33
2018-01-16T07:39:11.088Z,37.27
2018-01-16T07:41:38.673Z,36.40
2018-01-16T07:44:06.256Z,38.40
2018-01-16T07:46:34.009Z,31.80
2018-01-16T07:49:01.685Z,31.00
2018-01-16T07:51:29.263Z,38.13
2018-01-16T07:53:57.188Z,36.67
2018-01-16T07:56:24.878Z,30.83
2018-01-16T07:58:52.444Z,34.63
2018-01-16T08:01:20.206Z,32.40
2018-01-16T08:03:48.031Z,31.00
2018-01-16T08:06:15.846Z,34.47
2018-01-16T08:08:43.597Z,35.97
2018-01-16T08:11:11.261Z,35.17
2018-01-16T08:13:39.096Z,32.90
2018-01-16T08:16:06.773Z,31.37
2018-01-16T08:18:34.397Z,28.87
2018-01-16T08:21:01.960Z,27.20
2018-01-16T08:23:29.766Z,25.13
2018-01-16T08:25:57.352Z,20.63
2018-01-16T08:28:25.097Z,26.00
2018-01-16T08:30:52.953Z,24.37
2018-01-16T08:33:20.628Z,19.70
2018-01-16T08:35:48.197Z,23.60
2018-01-16T08:38:16.111Z,21.63
2018-01-16T08:40:43.695Z,21.50
2018-01-16T08:43:12.356Z,15.83
2018-01-16T08:45:40.026Z,15.43
2018-01-16T08:48:07.604Z,16.83
2018-01-16T08:50:35.269Z,20.67
2018-01-16T08:53:02.981Z,32.87
2018-01-16T08:55:30.611Z,36.33
2018-01-16T08:57:58.178Z,34.17
2018-01-16T09:00:25.937Z,31.53
2018-01-16T09:02:53.804Z,30.23
2018-01-16T09:05:21.388Z,27.97
2018-01-16T09:07:49.010Z,26.00
2018-01-16T09:10:16.599Z,24.07
2018-01-16T09:12:44.240Z,22.07
2018-01-16T09:15:11.879Z,21.20
2018-01-16T09:17:39.572Z,21.37
2018-01-16T09:20:07.419Z,25.97
2018-01-16T09:22:35.064Z,23.13
2018-01-16T09:25:02.650Z,23.30
2018-01-16T09:27:30.245Z,26.07
2018-01-16T09:29:57.850Z,25.30
2018-01-16T09:32:25.440Z,21.27
2018-01-16T09:34:53.018Z,22.70
2018-01-16T09:37:20.745Z,22.67
2018-01-16T09:39:48.329Z,19.87
2018-01-16T09:42:15.988Z,18.13
2018-01-16T09:44:43.712Z,23.90
2018-01-16T09:47:11.507Z,23.57
2018-01-16T09:49:39.089Z,24.73
2018-01-16T09:52:06.846Z,28.00
2018-01-16T09:54:34.426Z,27.50
2018-01-16T09:57:02.013Z,30.30
2018-01-16T09:59:29.812Z,29.77
2018-01-16T10:01:57.387Z,32.87
2018-01-16T10:04:25.051Z,30.37
2018-01-16T10:06:52.669Z,61.10
2018-01-16T10:09:20.274Z,49.23
2018-01-16T10:11:47.849Z,33.67
2018-01-16T10:14:15.493Z,49.73
2018-01-16T10:16:43.229Z,34.17
2018-01-16T10:19:10.922Z,65.87
2018-01-16T10:21:38.569Z,40.53
2018-01-16T10:24:06.245Z,57.00
2018-01-16T10:26:34.104Z,41.00
2018-01-16T10:29:01.775Z,40.87
2018-01-16T10:31:29.360Z,42.20
2018-01-16T10:33:57.099Z,33.83
2018-01-16T10:36:24.836Z,28.70
2018-01-16T10:38:52.617Z,30.33
2018-01-16T10:41:20.298Z,30.73
2018-01-16T10:43:47.915Z,30.50
2018-01-16T10:46:15.491Z,48.30
2018-01-16T10:48:43.101Z,45.47
2018-01-16T10:51:10.926Z,28.17
2018-01-16T10:53:38.590Z,31.80
2018-01-16T10:56:06.260Z,30.13
2018-01-16T10:58:33.872Z,35.60
2018-01-16T11:01:01.583Z,37.33
2018-01-16T11:03:29.332Z,38.53
2018-01-16T11:05:56.936Z,38.70
2018-01-16T11:08:24.509Z,42.07
2018-01-16T11:10:52.222Z,38.30
2018-01-16T11:13:19.835Z,31.60
2018-01-16T11:15:47.413Z,29.30
2018-01-16T11:18:15.014Z,28.00
2018-01-16T11:20:42.616Z,35.50
2018-01-16T11:23:10.182Z,37.70
2018-01-16T11:25:37.800Z,38.33
2018-01-16T11:28:05.450Z,35.50
2018-01-16T11:30:33.111Z,44.87
2018-01-16T11:33:00.787Z,41.83
2018-01-16T11:35:28.511Z,53.10
2018-01-16T11:37:56.316Z,43.43
2018-01-16T11:40:23.978Z,37.77
2018-01-16T11:42:51.585Z,38.83
2018-01-16T11:45:19.507Z,40.30
2018-01-16T11:47:47.067Z,67.13
2018-01-16T11:50:14.712Z,71.03
2018-01-16T11:52:42.293Z,84.43
2018-01-16T11:55:10.094Z,49.97
2018-01-16T11:57:37.805Z,36.97
2018-01-16T12:00:05.420Z,36.90
2018-01-16T12:02:33.141Z,36.67
2018-01-16T12:05:00.829Z,34.10
2018-01-16T12:07:28.656Z,41.40
2018-01-16T12:09:56.335Z,42.07
2018-01-16T12:12:23.976Z,42.60
2018-01-16T12:14:51.588Z,47.37
2018-01-16T12:17:19.315Z,45.87
2018-01-16T12:19:46.954Z,45.07
2018-01-16T12:22:14.593Z,47.00
2018-01-16T12:24:42.299Z,47.47
2018-01-16T12:27:09.904Z,42.87
2018-01-16T12:29:37.484Z,41.53
2018-01-16T12:32:05.089Z,42.07
2018-01-16T12:34:32.705Z,42.33
2018-01-16T12:37:00.415Z,40.77
2018-01-16T12:39:28.124Z,40.37
2018-01-16T12:41:55.929Z,40.50
2018-01-16T12:44:23.588Z,41.57
2018-01-16T12:46:51.217Z,40.17
2018-01-16T12:49:18.827Z,43.90
2018-01-16T12:51:46.402Z,42.23
2018-01-16T12:54:14.047Z,42.60
2018-01-16T12:56:41.713Z,45.27
2018-01-16T12:59:09.289Z,47.30
2018-01-16T13:01:39.050Z,45.70
2018-01-16T13:04:08.364Z,42.50
2018-01-16T13:06:36.039Z,42.97
2018-01-16T13:09:03.912Z,39.40
2018-01-16T13:11:31.522Z,37.30
2018-01-16T13:13:59.327Z,41.40
2018-01-16T13:16:27.094Z,43.13
2018-01-16T13:18:54.764Z,42.97
2018-01-16T13:21:22.431Z,39.27
2018-01-16T13:23:50.013Z,40.17
2018-01-16T13:26:17.617Z,42.37
2018-01-16T13:28:45.192Z,36.50
2018-01-16T13:31:12.808Z,36.10
2018-01-16T13:33:40.437Z,32.83
2018-01-16T13:36:08.042Z,33.20
2018-01-16T13:38:35.849Z,33.00
2018-01-16T13:41:03.478Z,29.63
2018-01-16T13:43:31.051Z,28.43
2018-01-16T13:45:58.647Z,30.60
2018-01-16T13:48:26.267Z,29.90
2018-01-16T13:50:53.883Z,26.67
2018-01-16T13:53:21.484Z,30.17
2018-01-16T13:55:49.109Z,28.30
2018-01-16T13:58:16.677Z,31.50
2018-01-16T14:00:44.257Z,27.07
2018-01-16T14:03:11.852Z,27.70
2018-01-16T14:05:39.429Z,27.33
2018-01-16T14:08:07.013Z,27.77
2018-01-16T14:10:34.618Z,27.73
2018-01-16T14:13:02.202Z,29.33
2018-01-16T14:15:29.769Z,24.27
2018-01-16T14:17:57.371Z,28.97
2018-01-16T14:20:24.954Z,26.40
2018-01-16T14:22:52.528Z,29.67
2018-01-16T14:25:20.127Z,28.17
2018-01-16T14:27:47.696Z,23.90
2018-01-16T14:30:15.286Z,26.07
2018-01-16T14:32:42.906Z,29.63
2018-01-16T14:35:10.490Z,29.57
2018-01-16T14:37:38.097Z,31.03
2018-01-16T14:40:05.694Z,30.00
2018-01-16T14:42:33.275Z,33.67
2018-01-16T14:45:00.843Z,28.47
2018-01-16T14:47:28.460Z,31.10
2018-01-16T14:49:56.037Z,34.67
2018-01-16T14:52:23.613Z,33.33
2018-01-16T14:54:51.218Z,32.83
2018-01-16T14:57:18.783Z,31.87
2018-01-16T14:59:46.357Z,38.47
2018-01-16T15:02:13.970Z,37.50
2018-01-16T15:04:41.561Z,37.30
2018-01-16T15:07:09.141Z,41.00
2018-01-16T15:09:36.765Z,35.80
2018-01-16T15:12:04.368Z,36.00
2018-01-16T15:14:31.940Z,40.60
2018-01-16T15:16:59.549Z,38.60
2018-01-16T15:19:27.133Z,45.73
2018-01-16T15:21:54.727Z,87.63
2018-01-16T15:24:22.327Z,46.50
2018-01-16T15:26:49.912Z,42.30
2018-01-16T15:29:17.493Z,56.83
2018-01-16T15:31:45.108Z,110.67
2018-01-16T15:34:12.687Z,44.00
2018-01-16T15:36:42.654Z,53.60
2018-01-16T15:39:10.403Z,75.47
2018-01-16T15:41:38.025Z,46.10
2018-01-16T15:44:05.600Z,36.80
2018-01-16T15:46:33.228Z,44.67
2018-01-16T15:49:00.796Z,41.90
2018-01-16T15:51:28.388Z,43.37
2018-01-16T15:53:56.005Z,48.90
2018-01-16T15:56:23.593Z,49.03
2018-01-16T15:58:51.178Z,51.10
2018-01-16T16:01:18.821Z,42.63
2018-01-16T16:03:46.450Z,45.20
2018-01-16T16:06:14.041Z,47.57
2018-01-16T16:08:41.824Z,73.20
2018-01-16T16:11:09.414Z,59.33
2018-01-16T16:13:37.006Z,102.77
2018-01-16T16:16:04.628Z,66.43
2018-01-16T16:18:32.213Z,63.17
2018-01-16T16:20:59.794Z,63.90
2018-01-16T16:23:27.423Z,87.10
2018-01-16T16:25:55.018Z,84.87
2018-01-16T16:28:22.595Z,91.50
2018-01-16T16:30:50.274Z,64.57
2018-01-16T16:33:17.845Z,50.70
2018-01-16T16:35:45.441Z,49.97
2018-01-16T16:38:13.070Z,60.60
2018-01-16T16:40:40.641Z,61.90
2018-01-16T16:43:08.234Z,66.70
2018-01-16T16:45:35.843Z,61.03
2018-01-16T16:48:03.415Z,57.40
2018-01-16T16:50:30.990Z,46.97
2018-01-16T16:52:58.624Z,46.43
2018-01-16T16:55:26.186Z,40.47
2018-01-16T16:57:53.751Z,42.23
2018-01-16T17:00:21.377Z,46.87
2018-01-16T17:02:48.947Z,38.63
2018-01-16T17:05:16.490Z,38.93
2018-01-16T17:07:44.077Z,38.30
2018-01-16T17:10:11.649Z,41.20
2018-01-16T17:12:39.226Z,39.80
2018-01-16T17:15:06.843Z,42.80
2018-01-16T17:17:34.454Z,37.50
2018-01-16T17:20:02.061Z,38.07
2018-01-16T17:22:29.673Z,42.03
2018-01-16T17:24:57.263Z,35.63
2018-01-16T17:27:24.825Z,57.67
2018-01-16T17:29:52.429Z,69.93
2018-01-16T17:32:20.016Z,64.27
2018-01-16T17:34:47.605Z,67.47
2018-01-16T17:37:15.210Z,87.77
2018-01-16T17:39:42.772Z,91.37
2018-01-16T17:42:10.337Z,87.70
2018-01-16T17:44:38.033Z,71.93
2018-01-16T17:47:05.606Z,61.27
2018-01-16T17:49:33.185Z,57.23
2018-01-16T17:52:00.798Z,53.67
2018-01-16T17:54:28.354Z,55.27
2018-01-16T17:56:55.918Z,57.83
2018-01-16T17:59:23.518Z,67.30
2018-01-16T18:01:51.112Z,62.13
2018-01-16T18:04:18.692Z,52.20
2018-01-16T18:06:46.302Z,55.47
2018-01-16T18:09:13.890Z,52.60
2018-01-16T18:11:41.659Z,55.97
2018-01-16T18:14:09.258Z,45.53
2018-01-16T18:16:36.826Z,52.00
2018-01-16T18:19:04.492Z,45.17
2018-01-16T18:21:32.094Z,43.10
2018-01-16T18:23:59.636Z,43.60
2018-01-16T18:26:27.213Z,44.83
2018-01-16T18:28:54.830Z,40.63
2018-01-16T18:31:22.397Z,43.57
2018-01-16T18:33:50.178Z,40.63
2018-01-16T18:36:17.796Z,45.67
2018-01-16T18:38:45.369Z,41.50
2018-01-16T18:41:12.939Z,45.40
2018-01-16T18:43:40.558Z,48.00
2018-01-16T18:46:08.118Z,47.23
2018-01-16T18:48:35.675Z,42.63
2018-01-16T18:51:03.939Z,52.03
2018-01-16T18:53:31.496Z,48.00
2018-01-16T18:55:59.074Z,59.07
2018-01-16T18:58:26.653Z,69.13
2018-01-16T19:00:54.207Z,69.73
2018-01-16T19:03:21.765Z,72.47
2018-01-16T19:05:49.385Z,75.80
2018-01-16T19:08:16.945Z,70.30
2018-01-16T19:10:44.514Z,70.23
2018-01-16T19:13:12.135Z,41.97
2018-01-16T19:15:39.724Z,53.67
2018-01-16T19:18:07.282Z,57.93
2018-01-16T19:20:34.896Z,50.57
2018-01-16T19:23:02.473Z,64.30
2018-01-16T19:25:30.041Z,67.90
2018-01-16T19:27:57.635Z,67.50
2018-01-16T19:30:25.210Z,71.57
2018-01-16T19:32:52.764Z,74.37
2018-01-16T19:35:20.409Z,63.03
2018-01-16T19:37:47.973Z,67.67
2018-01-16T19:40:15.538Z,66.80
2018-01-16T19:42:43.137Z,70.13
2018-01-16T19:45:10.757Z,66.53
2018-01-16T19:47:38.309Z,71.47
2018-01-16T19:50:05.903Z,66.43
2018-01-16T19:52:33.466Z,71.43
2018-01-16T19:55:01.040Z,68.20
2018-01-16T19:57:28.731Z,71.20
2018-01-16T19:59:56.310Z,67.27
2018-01-16T20:02:23.877Z,70.53
2018-01-16T20:04:52.630Z,69.13
2018-01-16T20:07:20.188Z,67.17
2018-01-16T20:09:47.752Z,72.50
2018-01-16T20:12:15.359Z,70.50
2018-01-16T20:14:43.878Z,65.90
2018-01-16T20:17:11.436Z,61.83
2018-01-16T20:19:39.036Z,58.53
2018-01-16T20:22:06.600Z,58.30
2018-01-16T20:24:34.165Z,58.10
2018-01-16T20:27:01.811Z,55.23
2018-01-16T20:29:29.381Z,61.78
2018-01-16T20:31:56.953Z,66.55
2018-01-16T20:34:24.580Z,75.27
2018-01-16T20:36:52.172Z,80.60
2018-01-16T20:39:19.783Z,107.30
2018-01-16T20:41:47.393Z,112.77
2018-01-16T20:44:14.968Z,107.47
2018-01-16T20:46:42.607Z,102.95
2018-01-16T20:49:10.412Z,104.22
2018-01-16T20:51:38.007Z,81.30
2018-01-16T20:54:05.561Z,84.17
2018-01-16T20:56:33.161Z,90.95
2018-01-16T20:59:00.730Z,92.07
2018-01-16T21:01:28.283Z,83.33
2018-01-16T21:03:56.001Z,75.13
2018-01-16T21:06:23.657Z,74.47
2018-01-16T21:08:51.247Z,71.67
2018-01-16T21:11:18.936Z,75.20
2018-01-16T21:13:46.517Z,77.57
2018-01-16T21:16:14.107Z,74.18
2018-01-16T21:18:41.706Z,76.23
2018-01-16T21:21:09.328Z,66.77
2018-01-16T21:23:37.049Z,62.07
2018-01-16T21:26:04.668Z,69.20
2018-01-16T21:28:32.233Z,62.40
2018-01-16T21:30:59.800Z,58.57
2018-01-16T21:33:27.489Z,52.60
2018-01-16T21:35:55.130Z,58.63
2018-01-16T21:38:22.800Z,48.70
2018-01-16T21:40:50.431Z,49.00
2018-01-16T21:43:17.997Z,55.95
2018-01-16T21:45:45.577Z,84.87
2018-01-16T21:48:13.230Z,134.70
2018-01-16T21:50:40.811Z,114.50
2018-01-16T21:53:08.433Z,114.18
2018-01-16T21:55:36.029Z,98.82
2018-01-16T21:58:03.615Z,74.30
2018-01-16T22:00:31.231Z,92.97
2018-01-16T22:02:58.835Z,91.47
2018-01-16T22:05:26.414Z,86.60
2018-01-16T22:07:54.149Z,70.33
2018-01-16T22:10:21.793Z,62.67
2018-01-16T22:12:49.520Z,62.17
2018-01-16T22:15:17.183Z,68.28
2018-01-16T22:17:44.788Z,64.07
2018-01-16T22:20:12.380Z,65.30
2018-01-16T22:22:39.952Z,77.87
2018-01-16T22:25:07.554Z,79.60
2018-01-16T22:27:35.231Z,84.93
2018-01-16T22:30:02.820Z,88.73
2018-01-16T22:32:30.491Z,84.07
2018-01-16T22:34:58.066Z,55.93
2018-01-16T22:37:25.623Z,48.40
2018-01-16T22:39:53.333Z,42.60
2018-01-16T22:42:20.903Z,44.57
2018-01-16T22:44:48.463Z,46.60
2018-01-16T22:47:16.056Z,41.50
2018-01-16T22:49:43.603Z,48.22
2018-01-16T22:52:11.188Z,44.90
2018-01-16T22:54:38.862Z,43.20
2018-01-16T22:57:06.470Z,46.67
2018-01-16T22:59:34.039Z,44.70
2018-01-16T23:02:01.642Z,43.42
2018-01-16T23:04:29.241Z,40.67
2018-01-16T23:06:56.807Z,41.03
2018-01-16T23:09:24.447Z,43.43
2018-01-16T23:11:52.121Z,41.93
2018-01-16T23:14:19.679Z,40.23
2018-01-16T23:16:47.270Z,44.10
2018-01-16T23:19:14.835Z,41.33
2018-01-16T23:21:42.390Z,41.13
2018-01-16T23:24:09.993Z,38.57
2018-01-16T23:26:37.577Z,40.80
2018-01-16T23:29:05.139Z,38.40
2018-01-16T23:31:32.761Z,36.80
2018-01-16T23:34:00.330Z,37.50
2018-01-16T23:36:27.964Z,36.10
2018-01-16T23:38:55.581Z,38.42
2018-01-16T23:41:23.146Z,35.17
2018-01-16T23:43:50.698Z,35.90
2018-01-16T23:46:18.287Z,36.03
2018-01-16T23:48:45.882Z,34.50
2018-01-16T23:51:13.504Z,35.87
2018-01-16T23:53:41.126Z,35.60
2018-01-16T23:56:08.745Z,36.70
2018-01-16T23:58:36.318Z,36.83
